Caselton, Nevada
Current Conditions -  °F | °C
As of 6:53 PM on Friday 21 Nov 2014 (Local Time) from KELY Reporting Station
Broken Clouds Broken Clouds  
Wind Chill: 26°   Ceiling: 11000
Heat Index: 32°   Visibility: 10mi
Dew Point: 17°   Wind: 7mph
Humidity: 54%   Direction: 190°S
Pressure: 30.05"   Gusts: NA
Location:  38.2635°N, 114.484°W
Report Text: KELY 220253Z AUTO 19006KT 10SM BKN110 00/M08 A3005 RMK AO2 SLP195 T00001083 53010
Loading
Personal Weather Stations






























Interactive Weather Map New forecast layout! Learn more

10-Day Weather Forecast

Advertisements
Track Severe Weather on mobile